createdAt,value
2023-02-24T00:00:37.902Z,9.53
2023-02-24T00:03:11.191Z,8.83
2023-02-24T00:05:44.356Z,8.73
2023-02-24T00:08:12.733Z,8.87
2023-02-24T00:10:41.307Z,7.80
2023-02-24T00:13:12.008Z,28.37
2023-02-24T00:15:40.284Z,14.03
2023-02-24T00:18:09.233Z,11.63
2023-02-24T00:20:37.480Z,7.83
2023-02-24T00:23:09.790Z,7.77
2023-02-24T00:25:37.957Z,12.33
2023-02-24T00:28:06.392Z,9.17
2023-02-24T00:30:34.499Z,9.70
2023-02-24T00:33:03.960Z,10.20
2023-02-24T00:35:32.413Z,8.37
2023-02-24T00:38:00.935Z,8.87
2023-02-24T00:40:30.800Z,6.97
2023-02-24T00:42:59.227Z,7.33
2023-02-24T00:45:30.982Z,9.07
2023-02-24T00:47:59.428Z,6.90
2023-02-24T00:50:27.690Z,13.93
2023-02-24T00:52:55.877Z,6.13
2023-02-24T00:55:24.296Z,10.73
2023-02-24T00:57:53.966Z,9.00
2023-02-24T01:00:23.517Z,8.87
2023-02-24T01:02:52.317Z,7.93
2023-02-24T01:05:21.203Z,17.93
2023-02-24T01:07:49.412Z,8.80
2023-02-24T01:10:18.410Z,8.90
2023-02-24T01:12:53.876Z,5.73
2023-02-24T01:15:24.343Z,8.63
2023-02-24T01:17:52.553Z,8.90
2023-02-24T01:20:20.945Z,11.23
2023-02-24T01:22:53.312Z,8.13
2023-02-24T01:25:21.727Z,8.00
2023-02-24T01:27:50.688Z,7.87
2023-02-24T01:30:19.107Z,7.87
2023-02-24T01:32:49.103Z,6.07
2023-02-24T01:35:17.812Z,7.90
2023-02-24T01:37:46.361Z,5.53
2023-02-24T01:40:21.312Z,7.37
2023-02-24T01:42:50.588Z,7.43
2023-02-24T01:45:22.896Z,12.33
2023-02-24T01:47:54.097Z,5.50
2023-02-24T01:50:26.037Z,6.53
2023-02-24T01:52:59.094Z,6.23
2023-02-24T01:55:32.114Z,9.90
2023-02-24T01:58:02.978Z,4.70
2023-02-24T02:00:38.366Z,8.37
2023-02-24T02:03:20.407Z,7.13
2023-02-24T02:05:49.283Z,5.77
2023-02-24T02:08:19.828Z,10.60
2023-02-24T02:10:48.966Z,6.10
2023-02-24T02:13:21.521Z,8.87
2023-02-24T02:16:03.074Z,8.63
2023-02-24T02:18:43.446Z,7.27
2023-02-24T02:21:37.333Z,6.43
2023-02-24T02:24:32.514Z,7.57
2023-02-24T02:28:00.350Z,12.20
2023-02-24T02:31:07.620Z,7.63
2023-02-24T02:34:08.729Z,8.37
2023-02-24T02:36:44.377Z,8.73
2023-02-24T02:39:17.892Z,7.23
2023-02-24T02:41:53.729Z,6.67
2023-02-24T02:44:27.966Z,6.70
2023-02-24T02:47:02.748Z,8.50
2023-02-24T02:49:37.340Z,7.40
2023-02-24T02:52:13.763Z,8.53
2023-02-24T02:54:49.793Z,3.60
2023-02-24T02:57:22.480Z,6.50
2023-02-24T02:59:56.238Z,9.60
2023-02-24T03:02:29.603Z,7.43
2023-02-24T03:05:02.994Z,7.10
2023-02-24T03:07:40.465Z,5.90
2023-02-24T03:10:17.696Z,7.43
2023-02-24T03:12:50.765Z,31.83
2023-02-24T03:15:22.145Z,34.07
2023-02-24T03:17:57.347Z,27.10
2023-02-24T03:20:32.738Z,52.80
2023-02-24T03:23:04.314Z,22.03
2023-02-24T03:25:44.610Z,19.00
2023-02-24T03:28:17.724Z,11.17
2023-02-24T03:30:52.200Z,10.63
2023-02-24T03:33:29.684Z,10.33
2023-02-24T03:36:01.845Z,12.93
2023-02-24T03:38:33.550Z,6.40
2023-02-24T03:41:02.224Z,5.53
2023-02-24T03:43:33.813Z,9.83
2023-02-24T03:46:02.334Z,13.80
2023-02-24T03:48:30.838Z,5.93
2023-02-24T03:51:00.776Z,7.40
2023-02-24T03:53:37.907Z,7.23
2023-02-24T03:56:18.153Z,7.10
2023-02-24T03:58:59.643Z,7.40
2023-02-24T04:01:34.839Z,14.03
2023-02-24T04:04:08.521Z,17.73
2023-02-24T04:06:46.122Z,22.37
2023-02-24T04:09:20.211Z,11.97
2023-02-24T04:11:55.997Z,26.20
2023-02-24T04:14:29.244Z,15.50
2023-02-24T04:17:01.304Z,11.33
2023-02-24T04:19:33.525Z,9.13
2023-02-24T04:22:04.315Z,11.43
2023-02-24T04:24:35.074Z,11.30
2023-02-24T04:27:07.460Z,10.07
2023-02-24T04:29:47.003Z,10.00
2023-02-24T04:32:18.975Z,10.00
2023-02-24T04:34:47.454Z,13.60
2023-02-24T04:37:17.061Z,8.70
2023-02-24T04:39:46.179Z,10.60
2023-02-24T04:42:14.370Z,12.30
2023-02-24T04:44:42.965Z,9.73
2023-02-24T04:47:12.310Z,10.83
2023-02-24T04:49:41.155Z,10.00
2023-02-24T04:52:10.445Z,7.10
2023-02-24T04:54:40.151Z,15.90
2023-02-24T04:57:10.637Z,10.53
2023-02-24T04:59:38.970Z,8.90
2023-02-24T05:02:07.549Z,9.43
2023-02-24T05:04:38.956Z,12.53
2023-02-24T05:07:07.327Z,13.87
2023-02-24T05:09:35.474Z,10.10
2023-02-24T05:12:05.489Z,9.60
2023-02-24T05:14:33.689Z,9.43
2023-02-24T05:17:02.393Z,14.07
2023-02-24T05:19:47.920Z,7.47
2023-02-24T05:22:17.720Z,8.77
2023-02-24T05:24:48.118Z,6.77
2023-02-24T05:27:18.388Z,8.47
2023-02-24T05:29:46.802Z,11.30
2023-02-24T05:32:16.871Z,9.67
2023-02-24T05:34:45.127Z,10.93
2023-02-24T05:37:16.882Z,8.10
2023-02-24T05:39:45.097Z,11.60
2023-02-24T05:42:13.233Z,7.63
2023-02-24T05:44:42.830Z,17.87
2023-02-24T05:47:11.365Z,6.67
2023-02-24T05:49:39.803Z,12.57
2023-02-24T05:52:10.229Z,11.57
2023-02-24T05:54:41.679Z,7.63
2023-02-24T05:57:12.871Z,9.10
2023-02-24T05:59:43.482Z,12.47
2023-02-24T06:02:13.899Z,7.73
2023-02-24T06:04:51.317Z,9.60
2023-02-24T06:07:22.912Z,9.03
2023-02-24T06:09:53.840Z,8.93
2023-02-24T06:12:23.279Z,8.03
2023-02-24T06:14:53.166Z,13.73
2023-02-24T06:17:23.042Z,11.53
2023-02-24T06:19:52.875Z,6.70
2023-02-24T06:22:23.803Z,7.70
2023-02-24T06:24:54.107Z,10.73
2023-02-24T06:27:25.217Z,6.37
2023-02-24T06:29:56.874Z,12.57
2023-02-24T06:32:27.410Z,9.87
2023-02-24T06:34:57.582Z,11.60
2023-02-24T06:37:25.973Z,10.80
2023-02-24T06:39:54.192Z,7.53
2023-02-24T06:42:22.544Z,6.77
2023-02-24T06:44:51.239Z,6.93
2023-02-24T06:47:22.645Z,10.83
2023-02-24T06:49:51.603Z,11.10
2023-02-24T06:52:19.900Z,5.63
2023-02-24T06:54:49.730Z,11.50
2023-02-24T06:57:18.393Z,10.97
2023-02-24T06:59:48.803Z,10.83
2023-02-24T07:02:17.715Z,12.63
2023-02-24T07:04:47.740Z,10.83
2023-02-24T07:07:17.494Z,8.90
2023-02-24T07:09:45.890Z,7.23
2023-02-24T07:12:21.025Z,13.10
2023-02-24T07:14:50.465Z,10.83
2023-02-24T07:17:19.956Z,9.97
2023-02-24T07:19:49.689Z,15.27
2023-02-24T07:22:25.139Z,16.07
2023-02-24T07:25:00.529Z,21.63
2023-02-24T07:27:29.048Z,17.70
2023-02-24T07:29:57.280Z,18.27
2023-02-24T07:32:25.897Z,15.00
2023-02-24T07:34:55.625Z,13.53
2023-02-24T07:37:24.478Z,12.60
2023-02-24T07:39:53.029Z,15.90
2023-02-24T07:42:21.272Z,18.93
2023-02-24T07:44:49.681Z,15.33
2023-02-24T07:47:17.952Z,16.73
2023-02-24T07:49:46.345Z,11.97
2023-02-24T07:52:16.201Z,11.57
2023-02-24T07:54:44.445Z,14.60
2023-02-24T07:57:14.176Z,17.97
2023-02-24T07:59:47.039Z,16.23
2023-02-24T08:02:15.782Z,14.00
2023-02-24T08:04:50.602Z,11.07
2023-02-24T08:07:24.932Z,12.40
2023-02-24T08:10:14.523Z,14.67
2023-02-24T08:12:43.798Z,11.83
2023-02-24T08:15:22.083Z,11.67
2023-02-24T08:17:50.186Z,7.50
2023-02-24T08:20:29.814Z,9.63
2023-02-24T08:22:59.548Z,12.63
2023-02-24T08:25:35.951Z,11.80
2023-02-24T08:28:09.592Z,13.43
2023-02-24T08:30:40.319Z,10.40
2023-02-24T08:33:10.930Z,18.23
2023-02-24T08:35:44.799Z,16.17
2023-02-24T08:38:16.486Z,10.77
2023-02-24T08:40:54.815Z,39.03
2023-02-24T08:43:34.720Z,15.40
2023-02-24T08:46:13.403Z,14.77
2023-02-24T08:48:43.411Z,14.50
2023-02-24T08:51:15.181Z,12.57
2023-02-24T08:53:46.813Z,9.77
2023-02-24T08:56:24.393Z,11.57
2023-02-24T08:58:57.655Z,13.27
2023-02-24T09:01:34.625Z,10.17
2023-02-24T09:04:06.001Z,21.53
2023-02-24T09:06:41.118Z,12.50
2023-02-24T09:09:21.265Z,12.00
2023-02-24T09:11:56.183Z,11.80
2023-02-24T09:14:28.430Z,95.93
2023-02-24T09:17:05.523Z,37.87
2023-02-24T09:19:55.418Z,34.17
2023-02-24T09:22:41.126Z,24.53
2023-02-24T09:25:18.818Z,10.83
2023-02-24T09:27:52.302Z,7.13
2023-02-24T09:30:38.444Z,9.07
2023-02-24T09:33:08.723Z,7.50
2023-02-24T09:35:41.876Z,10.43
2023-02-24T09:38:10.185Z,12.57
2023-02-24T09:40:48.822Z,11.60
2023-02-24T09:43:24.506Z,8.87
2023-02-24T09:45:59.390Z,12.97
2023-02-24T09:48:43.873Z,40.07
2023-02-24T09:51:22.918Z,16.67
2023-02-24T09:53:54.502Z,16.53
2023-02-24T09:56:32.713Z,16.70
2023-02-24T09:59:12.685Z,15.63
2023-02-24T10:02:02.252Z,18.93
2023-02-24T10:04:49.429Z,42.93
2023-02-24T10:07:21.391Z,17.57
2023-02-24T10:09:54.045Z,14.17
2023-02-24T10:12:34.093Z,13.97
2023-02-24T10:15:19.762Z,15.33
2023-02-24T10:17:55.448Z,10.37
2023-02-24T10:20:39.368Z,10.63
2023-02-24T10:23:14.198Z,11.50
2023-02-24T10:25:54.149Z,12.63
2023-02-24T10:28:36.073Z,14.83
2023-02-24T10:31:25.383Z,12.07
2023-02-24T10:33:58.331Z,17.30
2023-02-24T10:36:35.347Z,15.73
2023-02-24T10:39:15.711Z,18.03
2023-02-24T10:41:46.966Z,17.57
2023-02-24T10:44:25.060Z,12.67
2023-02-24T10:47:11.682Z,51.97
2023-02-24T10:49:56.933Z,18.13
2023-02-24T10:52:50.791Z,15.57
2023-02-24T10:55:39.223Z,23.40
2023-02-24T10:58:15.934Z,18.73
2023-02-24T11:01:12.592Z,17.53
2023-02-24T11:03:48.002Z,21.60
2023-02-24T11:06:30.855Z,23.07
2023-02-24T11:09:19.229Z,26.03
2023-02-24T11:12:06.462Z,18.23
2023-02-24T11:15:06.053Z,17.93
2023-02-24T11:17:37.916Z,25.73
2023-02-24T11:20:17.565Z,20.30
2023-02-24T11:22:51.925Z,18.07
2023-02-24T11:25:24.310Z,18.70
2023-02-24T11:27:54.981Z,26.67
2023-02-24T11:30:30.955Z,25.63
2023-02-24T11:33:23.311Z,19.73
2023-02-24T11:36:05.281Z,26.63
2023-02-24T11:38:41.461Z,23.53
2023-02-24T11:41:20.668Z,27.97
2023-02-24T11:43:58.982Z,29.00
2023-02-24T11:46:37.176Z,23.13
2023-02-24T11:49:17.658Z,25.90
2023-02-24T11:51:46.666Z,20.63
2023-02-24T11:54:17.780Z,21.03
2023-02-24T11:56:50.019Z,20.83
2023-02-24T11:59:22.402Z,19.73
2023-02-24T12:01:59.325Z,17.63
2023-02-24T12:04:33.465Z,20.33
2023-02-24T12:07:06.878Z,20.57
2023-02-24T12:09:42.632Z,18.20
2023-02-24T12:12:14.952Z,22.73
2023-02-24T12:14:49.661Z,20.07
2023-02-24T12:17:25.335Z,25.57
2023-02-24T12:20:01.672Z,21.57
2023-02-24T12:22:40.028Z,20.23
2023-02-24T12:25:13.165Z,19.63
2023-02-24T12:27:49.527Z,21.40
2023-02-24T12:30:49.736Z,24.50
2023-02-24T12:33:53.334Z,18.03
2023-02-24T12:36:38.719Z,17.77
2023-02-24T12:39:16.259Z,15.03
2023-02-24T12:42:03.282Z,17.03
2023-02-24T12:44:44.152Z,17.70
2023-02-24T12:47:15.250Z,19.83
2023-02-24T12:50:09.241Z,22.80
2023-02-24T12:52:50.285Z,17.30
2023-02-24T12:55:24.491Z,16.00
2023-02-24T12:58:00.498Z,15.00
2023-02-24T13:00:37.646Z,17.63
2023-02-24T13:03:23.126Z,16.47
2023-02-24T13:05:57.242Z,20.57
2023-02-24T13:08:38.006Z,17.30
2023-02-24T13:11:13.440Z,16.77
2023-02-24T13:13:50.557Z,17.83
2023-02-24T13:16:30.631Z,16.23
2023-02-24T13:19:20.386Z,20.37
2023-02-24T13:22:02.400Z,18.93
2023-02-24T13:24:32.377Z,20.37
2023-02-24T13:27:18.545Z,41.23
2023-02-24T13:29:48.099Z,28.83
2023-02-24T13:32:29.579Z,29.53
2023-02-24T13:34:59.118Z,20.57
2023-02-24T13:37:32.508Z,17.33
2023-02-24T13:40:13.581Z,24.73
2023-02-24T13:42:42.169Z,14.57
2023-02-24T13:45:21.033Z,16.40
2023-02-24T13:48:20.684Z,24.03
2023-02-24T13:51:06.363Z,16.73
2023-02-24T13:53:48.531Z,19.93
2023-02-24T13:56:34.148Z,18.43
2023-02-24T13:59:37.235Z,18.30
2023-02-24T14:02:14.588Z,18.67
2023-02-24T14:04:49.418Z,23.43
2023-02-24T14:07:23.375Z,23.40
2023-02-24T14:09:55.699Z,17.77
2023-02-24T14:12:28.689Z,25.53
2023-02-24T14:14:58.440Z,45.60
2023-02-24T14:17:30.569Z,34.40
2023-02-24T14:20:11.144Z,30.03
2023-02-24T14:22:45.007Z,51.07
2023-02-24T14:25:15.827Z,54.20
2023-02-24T14:27:48.243Z,77.93
2023-02-24T14:30:26.764Z,56.27
2023-02-24T14:32:55.787Z,53.83
2023-02-24T14:35:32.323Z,60.97
2023-02-24T14:38:02.259Z,66.30
2023-02-24T14:40:30.997Z,76.33
2023-02-24T14:43:00.670Z,59.00
2023-02-24T14:45:30.897Z,66.67
2023-02-24T14:47:59.207Z,52.73
2023-02-24T14:50:31.295Z,57.03
2023-02-24T14:53:05.102Z,202.93
2023-02-24T14:55:37.209Z,67.90
2023-02-24T14:58:13.223Z,48.33
2023-02-24T15:00:46.943Z,48.20
2023-02-24T15:03:19.295Z,47.97
2023-02-24T15:05:51.615Z,47.77
2023-02-24T15:08:35.781Z,49.37
2023-02-24T15:11:11.453Z,49.93
2023-02-24T15:13:43.448Z,117.90
2023-02-24T15:16:19.088Z,57.77
2023-02-24T15:18:52.409Z,55.50
2023-02-24T15:21:23.689Z,57.37
2023-02-24T15:24:00.634Z,53.30
2023-02-24T15:26:31.180Z,49.50
2023-02-24T15:29:03.118Z,55.57
2023-02-24T15:31:31.633Z,51.33
2023-02-24T15:34:03.425Z,47.93
2023-02-24T15:36:34.812Z,51.80
2023-02-24T15:39:06.674Z,85.37
2023-02-24T15:41:42.096Z,63.63
2023-02-24T15:44:28.837Z,46.17
2023-02-24T15:46:57.668Z,50.80
2023-02-24T15:49:26.787Z,44.23
2023-02-24T15:51:59.607Z,48.40
2023-02-24T15:54:31.532Z,49.47
2023-02-24T15:57:01.621Z,44.60
2023-02-24T15:59:31.464Z,48.80
2023-02-24T16:01:59.668Z,47.47
2023-02-24T16:04:28.165Z,49.37
2023-02-24T16:06:58.581Z,46.27
2023-02-24T16:09:33.631Z,49.13
2023-02-24T16:12:03.091Z,45.57
2023-02-24T16:14:34.123Z,50.83
2023-02-24T16:17:04.435Z,56.60
2023-02-24T16:19:32.603Z,51.20
2023-02-24T16:22:00.892Z,98.37
2023-02-24T16:24:29.140Z,79.90
2023-02-24T16:26:57.482Z,57.53
2023-02-24T16:29:25.898Z,60.70
2023-02-24T16:31:55.668Z,50.00
2023-02-24T16:34:24.034Z,59.00
2023-02-24T16:36:52.316Z,62.70
2023-02-24T16:39:20.540Z,50.37
2023-02-24T16:41:49.019Z,51.70
2023-02-24T16:44:17.230Z,46.90
2023-02-24T16:46:46.297Z,39.47
2023-02-24T16:49:21.031Z,55.37
2023-02-24T16:51:49.151Z,54.77
2023-02-24T16:54:17.491Z,51.43
2023-02-24T16:56:46.747Z,52.10
2023-02-24T16:59:14.984Z,41.00
2023-02-24T17:01:44.182Z,47.33
2023-02-24T17:04:14.297Z,60.67
2023-02-24T17:06:44.390Z,54.60
2023-02-24T17:09:15.658Z,120.80
2023-02-24T17:11:44.926Z,51.10
2023-02-24T17:14:17.305Z,49.83
2023-02-24T17:16:45.624Z,52.37
2023-02-24T17:19:14.051Z,52.03
2023-02-24T17:21:45.661Z,60.90
2023-02-24T17:24:17.363Z,56.73
2023-02-24T17:26:45.705Z,48.47
2023-02-24T17:29:14.849Z,56.40
2023-02-24T17:31:43.548Z,53.10
2023-02-24T17:34:11.810Z,43.00
2023-02-24T17:36:40.009Z,43.23
2023-02-24T17:39:09.689Z,47.57
2023-02-24T17:41:37.839Z,45.97
2023-02-24T17:44:06.056Z,48.73
2023-02-24T17:46:34.268Z,152.50
2023-02-24T17:49:04.967Z,89.93
2023-02-24T17:51:33.573Z,46.00
2023-02-24T17:54:01.811Z,51.03
2023-02-24T17:56:31.501Z,49.80
2023-02-24T17:59:01.075Z,48.47
2023-02-24T18:01:29.755Z,50.33
2023-02-24T18:03:58.358Z,54.13
2023-02-24T18:06:26.876Z,52.23
2023-02-24T18:08:55.173Z,48.97
2023-02-24T18:11:23.333Z,53.43
2023-02-24T18:13:55.146Z,49.27
2023-02-24T18:16:23.672Z,52.17
2023-02-24T18:18:52.325Z,54.97
2023-02-24T18:21:20.888Z,60.07
2023-02-24T18:23:49.737Z,53.83
2023-02-24T18:26:18.403Z,53.30
2023-02-24T18:28:46.670Z,52.63
2023-02-24T18:31:18.799Z,61.37
2023-02-24T18:33:47.234Z,63.10
2023-02-24T18:36:16.145Z,61.97
2023-02-24T18:38:44.880Z,62.80
2023-02-24T18:41:15.615Z,66.50
2023-02-24T18:43:44.317Z,65.77
2023-02-24T18:46:16.338Z,66.87
2023-02-24T18:48:46.000Z,60.00
2023-02-24T18:51:14.942Z,63.13
2023-02-24T18:53:43.252Z,69.00
2023-02-24T18:56:13.841Z,245.47
2023-02-24T18:58:42.116Z,100.53
2023-02-24T19:01:14.118Z,70.57
2023-02-24T19:03:44.751Z,71.23
2023-02-24T19:06:14.901Z,68.67
2023-02-24T19:08:43.620Z,72.40
2023-02-24T19:11:13.656Z,69.70
2023-02-24T19:13:42.184Z,70.83
2023-02-24T19:16:10.436Z,62.47
2023-02-24T19:18:38.989Z,70.10
2023-02-24T19:21:10.066Z,66.07
2023-02-24T19:23:39.429Z,69.57
2023-02-24T19:26:15.655Z,67.23
2023-02-24T19:28:43.836Z,62.47
2023-02-24T19:31:14.647Z,70.97
2023-02-24T19:33:43.318Z,64.50
2023-02-24T19:36:13.277Z,60.87
2023-02-24T19:38:42.352Z,64.37
2023-02-24T19:41:10.505Z,78.50
2023-02-24T19:43:38.819Z,72.27
2023-02-24T19:46:08.282Z,75.63
2023-02-24T19:48:36.834Z,67.30
2023-02-24T19:51:09.815Z,64.07
2023-02-24T19:53:39.612Z,62.03
2023-02-24T19:56:08.347Z,62.43
2023-02-24T19:58:36.718Z,59.30
2023-02-24T20:01:10.363Z,52.77
2023-02-24T20:03:40.665Z,53.63
2023-02-24T20:06:17.041Z,64.37
2023-02-24T20:08:46.684Z,64.70
2023-02-24T20:11:15.702Z,67.60
2023-02-24T20:13:43.852Z,79.00
2023-02-24T20:16:13.784Z,71.40
2023-02-24T20:18:42.910Z,61.87
2023-02-24T20:21:11.988Z,46.97
2023-02-24T20:23:40.807Z,47.13
2023-02-24T20:26:13.984Z,52.07
2023-02-24T20:28:42.523Z,43.83
2023-02-24T20:31:13.144Z,40.07
2023-02-24T20:33:41.950Z,39.80
2023-02-24T20:36:11.642Z,36.57
2023-02-24T20:38:40.379Z,39.97
2023-02-24T20:41:09.988Z,47.50
2023-02-24T20:43:38.420Z,44.93
2023-02-24T20:46:14.209Z,43.87
2023-02-24T20:48:42.661Z,60.03
2023-02-24T20:51:12.356Z,50.17
2023-02-24T20:53:55.874Z,49.27
2023-02-24T20:56:27.737Z,47.60
2023-02-24T20:59:00.076Z,46.57
2023-02-24T21:01:28.947Z,39.27
2023-02-24T21:03:57.267Z,42.57
2023-02-24T21:06:26.034Z,40.00
2023-02-24T21:08:54.322Z,39.87
2023-02-24T21:11:23.264Z,39.17
2023-02-24T21:13:53.834Z,45.97
2023-02-24T21:16:23.348Z,38.00
2023-02-24T21:18:53.284Z,35.70
2023-02-24T21:21:22.015Z,41.37
2023-02-24T21:23:51.466Z,37.87
2023-02-24T21:26:20.913Z,34.70
2023-02-24T21:28:49.587Z,34.23
2023-02-24T21:31:21.708Z,36.10
2023-02-24T21:33:53.656Z,33.40
2023-02-24T21:36:25.785Z,36.37
2023-02-24T21:38:54.912Z,33.03
2023-02-24T21:41:23.801Z,32.07
2023-02-24T21:43:55.291Z,29.67
2023-02-24T21:46:28.351Z,37.10
2023-02-24T21:48:57.684Z,30.67
2023-02-24T21:51:26.899Z,32.77
2023-02-24T21:53:56.800Z,31.93
2023-02-24T21:56:27.063Z,36.63
2023-02-24T21:58:59.074Z,34.87
2023-02-24T22:01:32.327Z,36.67
2023-02-24T22:04:02.457Z,37.93
2023-02-24T22:06:33.278Z,33.00
2023-02-24T22:09:02.410Z,34.27
2023-02-24T22:11:32.737Z,37.63
2023-02-24T22:14:00.985Z,33.33
2023-02-24T22:16:30.997Z,28.50
2023-02-24T22:18:59.329Z,34.70
2023-02-24T22:21:29.714Z,39.33
2023-02-24T22:24:00.408Z,43.60
2023-02-24T22:26:30.256Z,42.83
2023-02-24T22:28:59.085Z,39.80
2023-02-24T22:31:29.287Z,30.73
2023-02-24T22:33:59.649Z,38.50
2023-02-24T22:36:29.667Z,28.30
2023-02-24T22:38:59.478Z,28.37
2023-02-24T22:41:31.073Z,27.27
2023-02-24T22:43:59.950Z,29.07
2023-02-24T22:46:29.955Z,28.87
2023-02-24T22:48:59.951Z,25.50
2023-02-24T22:51:28.435Z,33.07
2023-02-24T22:53:57.260Z,29.90
2023-02-24T22:56:27.763Z,29.47
2023-02-24T22:58:56.532Z,37.67
2023-02-24T23:01:27.086Z,32.33
2023-02-24T23:03:55.644Z,30.27
2023-02-24T23:06:26.771Z,31.13
2023-02-24T23:08:55.815Z,31.43
2023-02-24T23:11:27.768Z,31.27
2023-02-24T23:13:57.411Z,32.83
2023-02-24T23:16:29.673Z,33.60
2023-02-24T23:19:00.920Z,34.23
2023-02-24T23:21:35.797Z,30.70
2023-02-24T23:24:04.897Z,31.07
2023-02-24T23:26:34.604Z,31.17
2023-02-24T23:29:03.238Z,30.57
2023-02-24T23:31:31.935Z,32.60
2023-02-24T23:34:03.829Z,32.30
2023-02-24T23:36:33.774Z,36.17
2023-02-24T23:39:03.045Z,30.83
2023-02-24T23:41:31.228Z,33.53
2023-02-24T23:44:00.129Z,28.27
2023-02-24T23:46:28.844Z,32.97
2023-02-24T23:48:57.740Z,29.13
2023-02-24T23:51:27.994Z,31.17
2023-02-24T23:54:00.533Z,27.20
2023-02-24T23:56:30.082Z,27.17
2023-02-24T23:58:59.822Z,30.23
